createdAt,value
2023-03-15T00:00:48.431Z,100.00
2023-03-15T00:03:15.382Z,100.00
2023-03-15T00:05:43.237Z,100.00
2023-03-15T00:08:09.981Z,100.00
2023-03-15T00:10:36.727Z,100.00
2023-03-15T00:13:03.481Z,100.00
2023-03-15T00:15:31.026Z,100.00
2023-03-15T00:17:57.981Z,100.00
2023-03-15T00:20:24.748Z,100.00
2023-03-15T00:22:51.492Z,100.00
2023-03-15T00:25:18.522Z,100.00
2023-03-15T00:27:45.269Z,100.00
2023-03-15T00:30:12.234Z,100.00
2023-03-15T00:32:39.006Z,100.00
2023-03-15T00:35:05.962Z,100.00
2023-03-15T00:37:32.813Z,100.00
2023-03-15T00:39:59.658Z,100.00
2023-03-15T00:42:27.654Z,100.00
2023-03-15T00:44:57.420Z,100.00
2023-03-15T00:47:24.203Z,100.00
2023-03-15T00:49:51.074Z,100.00
2023-03-15T00:52:18.420Z,100.00
2023-03-15T00:54:52.121Z,100.00
2023-03-15T00:57:19.345Z,100.00
2023-03-15T00:59:46.233Z,100.00
2023-03-15T01:02:13.077Z,100.00
2023-03-15T01:04:39.810Z,100.00
2023-03-15T01:07:06.687Z,100.00
2023-03-15T01:09:33.440Z,100.00
2023-03-15T01:12:00.199Z,100.00
2023-03-15T01:14:27.025Z,100.00
2023-03-15T01:16:53.762Z,100.00
2023-03-15T01:19:20.681Z,100.00
2023-03-15T01:21:47.972Z,100.00
2023-03-15T01:24:15.055Z,100.00
2023-03-15T01:26:41.841Z,100.00
2023-03-15T01:29:08.584Z,100.00
2023-03-15T01:31:35.395Z,100.00
2023-03-15T01:34:02.212Z,100.00
2023-03-15T01:36:29.286Z,100.00
2023-03-15T01:38:56.116Z,100.00
2023-03-15T01:41:24.867Z,100.00
2023-03-15T01:43:51.920Z,100.00
2023-03-15T01:46:27.782Z,100.00
2023-03-15T01:49:00.559Z,100.00
2023-03-15T01:51:38.942Z,100.00
2023-03-15T01:54:26.960Z,100.00
2023-03-15T01:57:05.511Z,100.00
2023-03-15T01:59:38.984Z,100.00
2023-03-15T02:02:05.779Z,100.00
2023-03-15T02:04:35.604Z,100.00
2023-03-15T02:07:02.700Z,100.00
2023-03-15T02:09:51.030Z,100.00
2023-03-15T02:12:18.177Z,100.00
2023-03-15T02:14:44.949Z,100.00
2023-03-15T02:17:11.730Z,100.00
2023-03-15T02:19:57.113Z,100.00
2023-03-15T02:22:32.441Z,100.00
2023-03-15T02:25:04.590Z,100.00
2023-03-15T02:27:34.581Z,100.00
2023-03-15T02:30:03.694Z,100.00
2023-03-15T02:32:31.027Z,100.00
2023-03-15T02:34:57.989Z,100.00
2023-03-15T02:37:24.889Z,100.00
2023-03-15T02:39:51.685Z,100.00
2023-03-15T02:42:19.373Z,100.00
2023-03-15T02:44:48.368Z,100.00
2023-03-15T02:47:27.329Z,100.00
2023-03-15T02:49:54.253Z,100.00
2023-03-15T02:52:22.124Z,100.00
2023-03-15T02:54:49.274Z,100.00
2023-03-15T02:57:16.924Z,100.00
2023-03-15T02:59:43.895Z,100.00
2023-03-15T03:02:14.248Z,100.00
2023-03-15T03:04:41.900Z,100.00
2023-03-15T03:07:08.689Z,100.00
2023-03-15T03:09:35.421Z,100.00
2023-03-15T03:12:02.170Z,100.00
2023-03-15T03:14:28.967Z,100.00
2023-03-15T03:16:55.815Z,100.00
2023-03-15T03:19:25.883Z,100.00
2023-03-15T03:21:53.858Z,100.00
2023-03-15T03:24:20.732Z,100.00
2023-03-15T03:26:47.523Z,100.00
2023-03-15T03:29:16.818Z,100.00
2023-03-15T03:31:44.146Z,100.00
2023-03-15T03:34:14.582Z,100.00
2023-03-15T03:36:42.771Z,100.00
2023-03-15T03:39:10.163Z,100.00
2023-03-15T03:41:36.988Z,100.00
2023-03-15T03:44:03.802Z,100.00
2023-03-15T03:46:30.693Z,100.00
2023-03-15T03:48:57.556Z,100.00
2023-03-15T03:51:24.312Z,100.00
2023-03-15T03:53:51.050Z,100.00
2023-03-15T03:56:17.785Z,100.00
2023-03-15T03:58:44.579Z,100.00
2023-03-15T04:01:11.750Z,100.00
2023-03-15T04:03:38.518Z,100.00
2023-03-15T04:06:05.841Z,100.00
2023-03-15T04:08:32.696Z,100.00
2023-03-15T04:10:59.474Z,100.00
2023-03-15T04:13:26.235Z,100.00
2023-03-15T04:15:58.004Z,100.00
2023-03-15T04:21:15.949Z,100.00
2023-03-15T04:23:42.676Z,100.00
2023-03-15T04:26:11.806Z,100.00
2023-03-15T04:28:38.530Z,100.00
2023-03-15T04:31:10.764Z,100.00
2023-03-15T04:33:37.562Z,100.00
2023-03-15T04:36:04.537Z,100.00
2023-03-15T04:38:32.420Z,100.00
2023-03-15T04:40:59.205Z,100.00
2023-03-15T04:43:25.944Z,100.00
2023-03-15T04:45:52.809Z,100.00
2023-03-15T04:48:19.616Z,100.00
2023-03-15T04:50:46.425Z,100.00
2023-03-15T04:53:13.156Z,100.00
2023-03-15T04:55:39.939Z,100.00
2023-03-15T04:58:06.677Z,100.00
2023-03-15T05:00:33.485Z,100.00
2023-03-15T05:03:00.296Z,100.00
2023-03-15T05:05:27.481Z,100.00
2023-03-15T05:07:54.275Z,100.00
2023-03-15T05:10:21.066Z,100.00
2023-03-15T05:12:47.843Z,100.00
2023-03-15T05:15:14.701Z,100.00
2023-03-15T05:17:41.490Z,100.00
2023-03-15T05:20:12.694Z,100.00
2023-03-15T05:22:40.936Z,100.00
2023-03-15T05:25:08.374Z,100.00
2023-03-15T05:27:35.205Z,100.00
2023-03-15T05:30:03.191Z,100.00
2023-03-15T05:32:34.801Z,100.00
2023-03-15T05:35:02.088Z,100.00
2023-03-15T05:37:28.947Z,100.00
2023-03-15T05:39:55.993Z,100.00
2023-03-15T05:42:26.241Z,100.00
2023-03-15T05:44:56.668Z,100.00
2023-03-15T05:47:23.552Z,100.00
2023-03-15T05:49:50.305Z,100.00
2023-03-15T05:52:17.079Z,100.00
2023-03-15T05:54:43.874Z,100.00
2023-03-15T05:57:10.952Z,100.00
2023-03-15T05:59:37.706Z,100.00
2023-03-15T06:02:04.737Z,100.00
2023-03-15T06:04:31.660Z,99.95
2023-03-15T06:06:58.526Z,100.00
2023-03-15T06:09:25.414Z,100.00
2023-03-15T06:11:52.535Z,99.90
2023-03-15T06:14:19.364Z,99.15
2023-03-15T06:16:46.126Z,100.00
2023-03-15T06:19:13.754Z,100.00
2023-03-15T06:21:40.500Z,99.58
2023-03-15T06:24:07.575Z,99.55
2023-03-15T06:26:34.374Z,97.92
2023-03-15T06:29:01.103Z,94.64
2023-03-15T06:31:27.881Z,94.62
2023-03-15T06:33:54.656Z,92.64
2023-03-15T06:36:21.499Z,91.38
2023-03-15T06:38:48.292Z,90.33
2023-03-15T06:41:15.694Z,90.37
2023-03-15T06:43:42.703Z,88.91
2023-03-15T06:46:09.532Z,87.90
2023-03-15T06:48:36.347Z,87.73
2023-03-15T06:51:05.927Z,85.71
2023-03-15T06:53:32.857Z,84.37
2023-03-15T06:55:59.704Z,84.36
2023-03-15T06:58:26.452Z,82.92
2023-03-15T07:00:53.245Z,81.77
2023-03-15T07:03:21.557Z,80.81
2023-03-15T07:05:52.455Z,80.01
2023-03-15T07:08:19.664Z,79.50
2023-03-15T07:10:46.796Z,78.36
2023-03-15T07:13:13.630Z,75.54
2023-03-15T07:15:40.443Z,75.04
2023-03-15T07:18:07.208Z,73.88
2023-03-15T07:20:36.306Z,74.69
2023-03-15T07:23:04.329Z,76.21
2023-03-15T07:25:31.067Z,77.15
2023-03-15T07:27:57.849Z,76.41
2023-03-15T07:30:24.671Z,74.95
2023-03-15T07:32:51.549Z,74.68
2023-03-15T07:35:18.448Z,72.71
2023-03-15T07:37:45.708Z,70.89
2023-03-15T07:40:12.987Z,74.11
2023-03-15T07:42:40.246Z,74.95
2023-03-15T07:45:07.754Z,75.74
2023-03-15T07:47:34.726Z,78.04
2023-03-15T07:50:01.504Z,78.79
2023-03-15T07:52:28.396Z,79.34
2023-03-15T07:54:55.224Z,79.05
2023-03-15T07:57:22.044Z,78.17
2023-03-15T07:59:49.203Z,76.60
2023-03-15T08:02:16.048Z,75.74
2023-03-15T08:04:42.932Z,73.58
2023-03-15T08:07:09.799Z,72.12
2023-03-15T08:09:36.653Z,72.70
2023-03-15T08:12:03.552Z,73.39
2023-03-15T08:14:31.714Z,75.43
2023-03-15T08:17:54.535Z,76.78
2023-03-15T08:20:21.318Z,78.31
2023-03-15T08:22:48.551Z,76.05
2023-03-15T08:25:16.978Z,74.35
2023-03-15T08:27:43.799Z,72.33
2023-03-15T08:30:12.684Z,69.46
2023-03-15T08:32:43.570Z,70.03
2023-03-15T08:35:15.194Z,70.72
2023-03-15T08:37:46.998Z,71.76
2023-03-15T08:40:19.170Z,72.35
2023-03-15T08:42:46.079Z,72.96
2023-03-15T08:45:12.882Z,73.15
2023-03-15T08:47:39.681Z,71.72
2023-03-15T08:50:11.740Z,71.88
2023-03-15T08:52:38.942Z,70.20
2023-03-15T08:55:06.223Z,70.54
2023-03-15T08:57:33.398Z,68.38
2023-03-15T09:00:01.806Z,67.62
2023-03-15T09:02:29.184Z,64.47
2023-03-15T09:04:55.941Z,65.81
2023-03-15T09:07:22.700Z,67.09
2023-03-15T09:09:49.604Z,66.98
2023-03-15T09:12:16.748Z,65.06
2023-03-15T09:14:43.898Z,63.05
2023-03-15T09:17:10.946Z,64.01
2023-03-15T09:19:37.911Z,64.94
2023-03-15T09:22:16.356Z,63.36
2023-03-15T09:24:51.762Z,64.34
2023-03-15T09:27:19.077Z,63.56
2023-03-15T09:29:45.880Z,65.43
2023-03-15T09:32:13.419Z,65.15
2023-03-15T09:34:42.302Z,65.57
2023-03-15T09:37:09.627Z,66.52
2023-03-15T09:39:36.437Z,68.58
2023-03-15T09:42:06.474Z,69.83
2023-03-15T09:44:36.953Z,65.97
2023-03-15T09:47:15.815Z,64.63
2023-03-15T09:49:45.484Z,64.60
2023-03-15T09:52:27.202Z,65.41
2023-03-15T09:55:04.804Z,66.24
2023-03-15T09:57:42.043Z,68.11
2023-03-15T10:00:13.522Z,68.90
2023-03-15T10:02:44.339Z,67.87
2023-03-15T10:05:21.309Z,68.15
2023-03-15T10:07:48.154Z,67.62
2023-03-15T10:10:22.399Z,67.02
2023-03-15T10:12:55.251Z,66.89
2023-03-15T10:15:26.826Z,66.26
2023-03-15T10:18:08.100Z,61.72
2023-03-15T10:20:41.865Z,59.63
2023-03-15T10:23:18.119Z,57.64
2023-03-15T10:25:44.894Z,51.87
2023-03-15T10:28:17.123Z,53.30
2023-03-15T10:30:48.314Z,53.68
2023-03-15T10:33:34.977Z,53.95
2023-03-15T10:36:11.138Z,55.43
2023-03-15T10:38:38.546Z,57.28
2023-03-15T10:41:06.893Z,58.52
2023-03-15T10:43:37.037Z,60.32
2023-03-15T10:46:11.791Z,62.14
2023-03-15T10:48:40.248Z,64.09
2023-03-15T10:51:28.860Z,66.25
2023-03-15T10:54:20.527Z,67.42
2023-03-15T10:56:51.165Z,65.17
2023-03-15T10:59:24.434Z,62.45
2023-03-15T11:01:55.259Z,60.23
2023-03-15T11:04:23.575Z,56.86
2023-03-15T11:07:03.842Z,51.63
2023-03-15T11:09:59.704Z,49.29
2023-03-15T11:12:27.932Z,45.95
2023-03-15T11:15:14.031Z,44.32
2023-03-15T11:17:48.447Z,40.75
2023-03-15T11:20:37.544Z,36.92
2023-03-15T11:23:18.784Z,36.19
2023-03-15T11:25:45.543Z,35.23
2023-03-15T11:28:17.484Z,33.50
2023-03-15T11:30:44.226Z,32.78
2023-03-15T11:33:11.459Z,33.61
2023-03-15T11:35:48.410Z,34.84
2023-03-15T11:38:19.357Z,35.37
2023-03-15T11:40:51.230Z,37.15
2023-03-15T11:43:47.397Z,39.64
2023-03-15T11:46:52.563Z,42.15
2023-03-15T11:49:25.027Z,45.13
2023-03-15T11:51:51.781Z,45.85
2023-03-15T11:54:18.873Z,46.05
2023-03-15T11:56:48.338Z,46.14
2023-03-15T11:59:29.478Z,44.58
2023-03-15T12:02:15.886Z,44.40
2023-03-15T12:04:49.689Z,44.73
2023-03-15T12:07:16.409Z,42.83
2023-03-15T12:09:52.403Z,42.25
2023-03-15T12:12:25.252Z,39.46
2023-03-15T12:15:15.286Z,38.46
2023-03-15T12:18:00.898Z,37.54
2023-03-15T12:20:45.846Z,36.43
2023-03-15T12:23:18.413Z,36.77
2023-03-15T12:25:54.936Z,38.76
2023-03-15T12:28:23.167Z,41.69
2023-03-15T12:30:54.467Z,44.01
2023-03-15T12:33:21.477Z,45.42
2023-03-15T12:35:48.754Z,47.89
2023-03-15T12:38:17.880Z,49.90
2023-03-15T12:40:53.025Z,51.13
2023-03-15T12:43:45.065Z,53.70
2023-03-15T12:46:42.495Z,51.08
2023-03-15T12:49:32.127Z,49.38
2023-03-15T12:52:03.165Z,48.13
2023-03-15T12:54:51.548Z,45.90
2023-03-15T12:57:36.339Z,43.54
2023-03-15T13:00:15.441Z,40.95
2023-03-15T13:02:49.304Z,39.81
2023-03-15T13:05:19.174Z,38.05
2023-03-15T13:08:10.408Z,35.64
2023-03-15T13:10:59.537Z,36.79
2023-03-15T13:13:47.952Z,37.48
2023-03-15T13:16:20.166Z,40.04
2023-03-15T13:19:05.502Z,41.87
2023-03-15T13:21:35.505Z,39.56
2023-03-15T13:24:02.321Z,38.66
2023-03-15T13:26:33.370Z,37.21
2023-03-15T13:29:01.955Z,35.70
2023-03-15T13:31:31.568Z,34.34
2023-03-15T13:34:10.713Z,33.84
2023-03-15T13:36:45.924Z,32.76
2023-03-15T13:39:33.467Z,31.95
2023-03-15T13:42:01.934Z,31.89
2023-03-15T13:44:29.293Z,31.71
2023-03-15T13:46:56.375Z,31.43
2023-03-15T13:49:23.640Z,31.81
2023-03-15T13:51:51.001Z,31.34
2023-03-15T13:54:20.699Z,30.95
2023-03-15T13:56:58.419Z,31.29
2023-03-15T13:59:32.720Z,32.22
2023-03-15T14:01:59.949Z,30.71
2023-03-15T14:04:26.786Z,30.78
2023-03-15T14:07:05.551Z,30.29
2023-03-15T14:09:32.347Z,30.91
2023-03-15T14:12:02.676Z,31.29
2023-03-15T14:14:30.095Z,31.18
2023-03-15T14:17:05.409Z,32.39
2023-03-15T14:19:34.375Z,32.14
2023-03-15T14:22:03.082Z,32.37
2023-03-15T14:24:34.620Z,33.30
2023-03-15T14:27:08.271Z,33.70
2023-03-15T14:29:36.445Z,34.18
2023-03-15T14:32:22.218Z,34.63
2023-03-15T14:34:49.581Z,35.20
2023-03-15T14:37:36.489Z,35.48
2023-03-15T14:40:18.193Z,36.01
2023-03-15T14:42:45.138Z,36.64
2023-03-15T14:45:12.338Z,38.43
2023-03-15T14:47:57.299Z,39.31
2023-03-15T14:50:26.226Z,40.78
2023-03-15T14:52:54.202Z,42.84
2023-03-15T14:55:23.027Z,45.90
2023-03-15T14:57:49.846Z,48.58
2023-03-15T15:00:17.911Z,52.76
2023-03-15T15:02:45.023Z,53.64
2023-03-15T15:05:26.334Z,56.04
2023-03-15T15:07:55.095Z,57.05
2023-03-15T15:10:24.901Z,58.68
2023-03-15T15:13:05.184Z,58.83
2023-03-15T15:15:40.771Z,59.22
2023-03-15T15:18:18.305Z,60.24
2023-03-15T15:20:45.302Z,60.44
2023-03-15T15:23:29.201Z,61.18
2023-03-15T15:26:00.428Z,62.04
2023-03-15T15:28:35.132Z,62.64
2023-03-15T15:31:02.701Z,64.53
2023-03-15T15:33:29.480Z,66.78
2023-03-15T15:35:56.580Z,67.43
2023-03-15T15:38:24.772Z,66.70
2023-03-15T15:40:51.488Z,68.38
2023-03-15T15:43:19.093Z,69.33
2023-03-15T15:45:45.891Z,69.46
2023-03-15T15:48:12.678Z,70.62
2023-03-15T15:50:39.429Z,70.70
2023-03-15T15:53:06.470Z,71.18
2023-03-15T15:55:35.106Z,71.46
2023-03-15T15:58:02.408Z,72.63
2023-03-15T16:00:29.557Z,73.23
2023-03-15T16:02:57.028Z,74.06
2023-03-15T16:05:26.011Z,74.27
2023-03-15T16:07:53.050Z,74.40
2023-03-15T16:10:24.808Z,74.63
2023-03-15T16:12:52.276Z,74.76
2023-03-15T16:15:19.238Z,76.40
2023-03-15T16:17:46.232Z,76.49
2023-03-15T16:20:13.454Z,78.29
2023-03-15T16:22:42.544Z,78.84
2023-03-15T16:25:20.106Z,79.88
2023-03-15T16:27:46.865Z,80.50
2023-03-15T16:30:27.298Z,82.70
2023-03-15T16:32:55.398Z,83.38
2023-03-15T16:35:23.121Z,84.53
2023-03-15T16:37:51.638Z,84.94
2023-03-15T16:40:25.410Z,85.30
2023-03-15T16:42:52.217Z,86.44
2023-03-15T16:45:19.360Z,87.29
2023-03-15T16:47:46.210Z,87.55
2023-03-15T16:50:13.047Z,87.42
2023-03-15T16:52:39.867Z,87.52
2023-03-15T16:55:06.988Z,88.31
2023-03-15T16:57:33.753Z,89.51
2023-03-15T17:00:02.647Z,89.34
2023-03-15T17:02:31.239Z,89.37
2023-03-15T17:04:58.000Z,89.68
2023-03-15T17:07:34.232Z,89.72
2023-03-15T17:10:03.628Z,90.54
2023-03-15T17:12:30.428Z,90.67
2023-03-15T17:14:58.820Z,90.76
2023-03-15T17:17:30.564Z,90.97
2023-03-15T17:19:58.271Z,91.80
2023-03-15T17:22:25.519Z,91.92
2023-03-15T17:24:52.250Z,92.31
2023-03-15T17:27:27.488Z,92.31
2023-03-15T17:29:54.225Z,92.37
2023-03-15T17:32:21.044Z,93.06
2023-03-15T17:34:47.930Z,93.08
2023-03-15T17:37:15.496Z,93.46
2023-03-15T17:39:42.825Z,93.40
2023-03-15T17:42:12.983Z,93.14
2023-03-15T17:44:39.816Z,93.09
2023-03-15T17:47:08.535Z,93.42
2023-03-15T17:49:36.236Z,93.91
2023-03-15T17:52:04.019Z,93.96
2023-03-15T17:54:30.798Z,94.41
2023-03-15T17:56:59.506Z,94.40
2023-03-15T17:59:26.337Z,94.93
2023-03-15T18:01:53.118Z,95.07
2023-03-15T18:04:20.591Z,95.32
2023-03-15T18:06:47.394Z,95.30
2023-03-15T18:09:15.452Z,95.17
2023-03-15T18:11:42.748Z,95.07
2023-03-15T18:14:16.081Z,95.54
2023-03-15T18:16:43.371Z,95.39
2023-03-15T18:19:10.673Z,95.38
2023-03-15T18:21:37.582Z,95.15
2023-03-15T18:24:04.517Z,95.51
2023-03-15T18:26:31.318Z,95.99
2023-03-15T18:28:58.198Z,96.18
2023-03-15T18:31:25.335Z,96.16
2023-03-15T18:33:52.269Z,96.15
2023-03-15T18:36:19.314Z,95.64
2023-03-15T18:38:46.303Z,95.63
2023-03-15T18:41:21.634Z,95.66
2023-03-15T18:43:52.139Z,96.08
2023-03-15T18:46:25.474Z,96.33
2023-03-15T18:48:55.395Z,96.09
2023-03-15T18:51:23.256Z,96.13
2023-03-15T18:53:50.080Z,96.19
2023-03-15T18:56:24.004Z,96.28
2023-03-15T18:58:51.184Z,96.32
2023-03-15T19:01:19.530Z,96.52
2023-03-15T19:03:46.496Z,96.95
2023-03-15T19:06:13.451Z,96.86
2023-03-15T19:08:40.648Z,96.58
2023-03-15T19:11:08.543Z,97.17
2023-03-15T19:13:35.647Z,96.75
2023-03-15T19:16:02.563Z,96.63
2023-03-15T19:18:29.755Z,96.54
2023-03-15T19:20:56.601Z,96.41
2023-03-15T19:23:23.379Z,96.09
2023-03-15T19:25:50.374Z,96.43
2023-03-15T19:28:17.213Z,96.55
2023-03-15T19:30:44.144Z,96.99
2023-03-15T19:33:11.106Z,97.00
2023-03-15T19:35:38.076Z,97.17
2023-03-15T19:38:04.978Z,96.90
2023-03-15T19:40:31.779Z,96.91
2023-03-15T19:42:58.590Z,96.96
2023-03-15T19:45:25.405Z,96.57
2023-03-15T19:47:52.384Z,96.61
2023-03-15T19:50:19.265Z,96.45
2023-03-15T19:52:46.241Z,96.72
2023-03-15T19:55:14.548Z,96.52
2023-03-15T19:57:41.428Z,96.96
2023-03-15T20:00:12.698Z,96.64
2023-03-15T20:02:41.330Z,97.04
2023-03-15T20:05:09.637Z,96.98
2023-03-15T20:07:37.240Z,96.95
2023-03-15T20:10:05.447Z,96.94
2023-03-15T20:12:35.119Z,96.67
2023-03-15T20:15:02.067Z,96.37
2023-03-15T20:17:28.888Z,96.50
2023-03-15T20:19:55.680Z,96.24
2023-03-15T20:22:22.506Z,97.00
2023-03-15T20:24:50.146Z,97.26
2023-03-15T20:27:17.073Z,96.74
2023-03-15T20:29:43.842Z,96.87
2023-03-15T20:32:10.730Z,96.53
2023-03-15T20:34:39.816Z,96.37
2023-03-15T20:37:06.814Z,96.15
2023-03-15T20:39:34.245Z,96.24
2023-03-15T20:42:01.032Z,96.75
2023-03-15T20:44:27.829Z,96.61
2023-03-15T20:46:56.865Z,96.67
2023-03-15T20:49:23.782Z,96.79
2023-03-15T20:51:51.060Z,96.58
2023-03-15T20:54:17.920Z,96.42
2023-03-15T20:56:44.675Z,96.94
2023-03-15T20:59:12.261Z,97.24
2023-03-15T21:01:39.131Z,96.69
2023-03-15T21:04:05.956Z,96.96
2023-03-15T21:06:33.298Z,97.43
2023-03-15T21:09:00.840Z,97.42
2023-03-15T21:11:27.939Z,96.98
2023-03-15T21:13:54.745Z,96.99
2023-03-15T21:16:21.679Z,97.09
2023-03-15T21:18:51.908Z,97.18
2023-03-15T21:21:18.922Z,97.68
2023-03-15T21:23:45.748Z,97.41
2023-03-15T21:26:13.288Z,97.28
2023-03-15T21:28:40.825Z,97.75
2023-03-15T21:31:07.916Z,98.01
2023-03-15T21:33:35.052Z,98.08
2023-03-15T21:36:02.011Z,98.59
2023-03-15T21:38:31.438Z,98.70
2023-03-15T21:40:59.611Z,98.74
2023-03-15T21:43:26.984Z,99.03
2023-03-15T21:45:53.955Z,98.98
2023-03-15T21:48:20.869Z,98.84
2023-03-15T21:50:47.674Z,98.47
2023-03-15T21:53:15.623Z,98.31
2023-03-15T21:55:42.423Z,97.99
2023-03-15T21:58:09.867Z,97.84
2023-03-15T22:00:36.709Z,98.01
2023-03-15T22:03:04.084Z,98.53
2023-03-15T22:05:30.920Z,98.46
2023-03-15T22:07:57.785Z,97.65
2023-03-15T22:10:24.963Z,97.87
2023-03-15T22:12:54.729Z,98.46
2023-03-15T22:15:24.368Z,98.11
2023-03-15T22:17:51.365Z,97.93
2023-03-15T22:20:18.711Z,98.19
2023-03-15T22:22:46.351Z,98.12
2023-03-15T22:25:13.565Z,98.25
2023-03-15T22:27:41.888Z,97.54
2023-03-15T22:30:10.026Z,97.96
2023-03-15T22:32:36.864Z,97.96
2023-03-15T22:35:04.195Z,98.06
2023-03-15T22:37:34.020Z,98.43
2023-03-15T22:40:00.899Z,98.13
2023-03-15T22:42:27.704Z,98.40
2023-03-15T22:44:54.550Z,98.26
2023-03-15T22:47:22.681Z,98.27
2023-03-15T22:49:49.515Z,98.42
2023-03-15T22:52:16.360Z,98.59
2023-03-15T22:54:43.646Z,98.54
2023-03-15T22:57:11.473Z,98.64
2023-03-15T22:59:41.031Z,99.18
2023-03-15T23:02:07.922Z,98.76
2023-03-15T23:04:34.769Z,98.48
2023-03-15T23:07:01.807Z,98.08
2023-03-15T23:09:28.657Z,98.41
2023-03-15T23:11:55.557Z,98.37
2023-03-15T23:14:22.447Z,98.33
2023-03-15T23:16:49.279Z,98.04
2023-03-15T23:19:16.119Z,98.46
2023-03-15T23:21:42.906Z,98.64
2023-03-15T23:24:09.722Z,98.78
2023-03-15T23:26:37.547Z,99.04
2023-03-15T23:29:10.861Z,98.34
2023-03-15T23:31:41.343Z,99.09
2023-03-15T23:34:08.339Z,99.41
2023-03-15T23:36:35.317Z,99.28
2023-03-15T23:39:02.146Z,99.04
2023-03-15T23:41:29.251Z,99.12
2023-03-15T23:43:56.063Z,99.26
2023-03-15T23:46:23.743Z,99.47
2023-03-15T23:48:52.505Z,99.62
2023-03-15T23:51:19.839Z,99.21
2023-03-15T23:53:46.635Z,99.14
2023-03-15T23:56:13.549Z,98.87
2023-03-15T23:58:40.904Z,98.44
